Time;durP1;ratioP1;P1;durP2;ratioP2;P2;SDS_P1;SDS_P2;PMS_P1;PMS_P2;Temp;Humidity;BMP_temperature;BMP_pressure;BME280_temperature;BME280_humidity;BME280_pressure;Samples;Min_cycle;Max_cycle;Signal;HPM_P1;HPM_P2
2022/12/09 00:00:56;;;;;;;21.70;15.00;;;5.50;82.50;;;;;;5023971;28;20036;-67
2022/12/09 00:03:21;;;;;;;25.02;17.40;;;5.50;82.40;;;;;;5028223;28;20033;-67
2022/12/09 00:05:48;;;;;;;28.05;18.95;;;5.40;82.10;;;;;;5026298;28;20030;-67
2022/12/09 00:08:14;;;;;;;23.42;16.05;;;5.30;82.10;;;;;;5028822;28;20053;-67
2022/12/09 00:10:42;;;;;;;20.70;15.43;;;5.30;82.30;;;;;;5029070;28;20057;-66
2022/12/09 00:13:08;;;;;;;22.85;15.45;;;5.40;82.20;;;;;;5030739;28;20018;-67
2022/12/09 00:15:34;;;;;;;23.42;16.55;;;5.40;82.10;;;;;;5025559;28;20644;-67
2022/12/09 00:18:00;;;;;;;24.95;17.58;;;5.40;82.00;;;;;;5027134;28;20087;-67
2022/12/09 00:20:25;;;;;;;24.70;16.25;;;5.40;81.90;;;;;;5029297;28;20021;-67
2022/12/09 00:22:51;;;;;;;26.15;18.00;;;5.30;81.90;;;;;;5025972;28;20119;-67
2022/12/09 00:25:16;;;;;;;25.10;17.75;;;5.20;82.00;;;;;;5028349;28;20060;-66
2022/12/09 00:27:42;;;;;;;30.25;19.00;;;5.20;82.30;;;;;;5030394;28;20040;-66
2022/12/09 00:30:08;;;;;;;25.83;17.52;;;5.20;82.50;;;;;;5031525;28;20018;-66
2022/12/09 00:32:33;;;;;;;25.45;16.88;;;5.20;82.60;;;;;;5025378;28;20021;-67
2022/12/09 00:34:59;;;;;;;23.02;16.45;;;5.20;82.80;;;;;;5022662;28;20036;-66
2022/12/09 00:37:24;;;;;;;22.13;15.90;;;5.30;82.70;;;;;;5021455;28;20032;-67
2022/12/09 00:39:50;;;;;;;22.65;15.70;;;5.30;82.60;;;;;;5023699;28;20096;-67
2022/12/09 00:42:15;;;;;;;21.85;14.00;;;5.30;82.50;;;;;;5024929;28;20026;-67
2022/12/09 00:44:41;;;;;;;22.48;15.38;;;5.40;82.60;;;;;;5026997;28;20041;-67
2022/12/09 00:47:06;;;;;;;23.65;16.90;;;5.40;82.60;;;;;;5022587;28;20028;-67
2022/12/09 00:49:32;;;;;;;24.23;16.38;;;5.40;82.50;;;;;;5027669;28;20022;-67
2022/12/09 00:51:57;;;;;;;23.70;15.32;;;5.40;82.30;;;;;;5007339;28;20391;-67
2022/12/09 00:54:23;;;;;;;25.77;16.08;;;5.50;82.20;;;;;;5024750;28;20033;-67
2022/12/09 00:56:48;;;;;;;22.05;15.13;;;5.50;82.20;;;;;;5009049;28;20443;-68
2022/12/09 00:59:14;;;;;;;21.48;14.07;;;5.50;82.40;;;;;;5033362;28;20056;-68
2022/12/09 01:01:39;;;;;;;21.25;14.60;;;5.50;82.40;;;;;;5032077;28;20115;-67
2022/12/09 01:04:07;;;;;;;20.45;14.18;;;5.50;82.30;;;;;;5027442;28;20117;-67
2022/12/09 01:06:32;;;;;;;20.02;14.35;;;5.50;82.20;;;;;;5030315;28;20020;-67
2022/12/09 01:08:58;;;;;;;21.35;15.52;;;5.50;82.10;;;;;;5019383;28;20022;-67
2022/12/09 01:11:27;;;;;;;23.08;16.52;;;5.40;82.10;;;;;;5028122;28;20508;-67
2022/12/09 01:13:56;;;;;;;26.20;17.83;;;5.40;82.20;;;;;;5010020;28;20070;-68
2022/12/09 01:16:24;;;;;;;24.00;17.02;;;5.30;82.20;;;;;;5031559;28;20018;-68
2022/12/09 01:18:51;;;;;;;26.70;19.00;;;5.20;82.20;;;;;;5024858;28;20040;-67
2022/12/09 01:21:17;;;;;;;28.90;18.60;;;5.10;82.20;;;;;;5024469;28;20036;-67
2022/12/09 01:23:43;;;;;;;22.67;16.33;;;5.00;82.40;;;;;;5025923;28;20022;-68
2022/12/09 01:26:09;;;;;;;25.17;17.73;;;5.00;83.20;;;;;;5032198;28;20022;-67
2022/12/09 01:28:37;;;;;;;28.13;18.75;;;5.00;82.70;;;;;;5028502;28;20116;-67
2022/12/09 01:31:11;;;;;;;25.85;17.30;;;5.00;82.70;;;;;;5029500;28;20022;-67
2022/12/09 01:33:37;;;;;;;27.35;18.65;;;5.00;82.90;;;;;;5029206;28;20430;-67
2022/12/09 01:36:06;;;;;;;27.45;17.45;;;4.90;82.90;;;;;;5028055;28;20049;-67
2022/12/09 01:38:31;;;;;;;24.83;15.70;;;5.00;83.00;;;;;;5029963;28;20098;-67
2022/12/09 01:40:57;;;;;;;27.67;17.50;;;5.00;82.90;;;;;;5031787;28;20065;-68
2022/12/09 01:43:23;;;;;;;23.45;16.52;;;5.00;82.80;;;;;;5031644;28;20032;-68
2022/12/09 01:45:48;;;;;;;28.17;18.42;;;5.00;83.10;;;;;;5027466;28;20033;-68
2022/12/09 01:48:17;;;;;;;25.40;17.35;;;5.10;82.90;;;;;;5030008;28;20033;-67
2022/12/09 01:50:52;;;;;;;26.52;17.77;;;5.00;82.90;;;;;;5026059;28;20018;-67
2022/12/09 01:53:20;;;;;;;28.08;19.35;;;5.10;83.00;;;;;;5028188;28;20039;-68
2022/12/09 01:55:47;;;;;;;26.50;17.80;;;5.00;82.90;;;;;;5020704;28;20018;-68
2022/12/09 01:58:13;;;;;;;25.80;17.75;;;5.10;83.00;;;;;;5028641;28;20029;-67
2022/12/09 02:00:40;;;;;;;25.38;17.25;;;5.10;82.90;;;;;;5030862;28;20026;-67
2022/12/09 02:03:06;;;;;;;26.50;17.38;;;5.00;82.90;;;;;;5030258;28;20104;-67
2022/12/09 02:05:33;;;;;;;31.50;21.80;;;5.00;82.90;;;;;;5020940;28;20061;-67
2022/12/09 02:07:59;;;;;;;29.33;19.90;;;5.00;82.90;;;;;;5029652;28;20021;-67
2022/12/09 02:10:26;;;;;;;27.27;19.00;;;4.90;83.00;;;;;;5032019;28;20427;-67
2022/12/09 02:13:11;;;;;;;27.92;19.75;;;4.90;83.10;;;;;;5033467;28;20109;-67
2022/12/09 02:15:46;;;;;;;31.23;20.83;;;4.90;83.20;;;;;;5027506;28;20033;-66
2022/12/09 02:18:17;;;;;;;29.40;20.42;;;4.80;83.20;;;;;;5032137;28;20387;-68
2022/12/09 02:21:08;;;;;;;24.17;16.93;;;4.90;83.40;;;;;;5031502;28;20033;-68
2022/12/09 02:23:41;;;;;;;26.90;18.17;;;4.90;83.30;;;;;;5021428;28;20438;-67
2022/12/09 02:26:17;;;;;;;32.03;21.33;;;4.90;83.30;;;;;;5027655;28;20047;-66
2022/12/09 02:28:58;;;;;;;32.15;21.60;;;4.90;83.20;;;;;;5030890;28;20108;-67
2022/12/09 02:31:34;;;;;;;31.45;20.52;;;4.80;83.20;;;;;;5007685;28;20018;-67
2022/12/09 02:34:17;;;;;;;32.40;21.48;;;4.70;83.30;;;;;;5027910;28;20032;-66
2022/12/09 02:36:46;;;;;;;28.88;19.38;;;4.70;83.60;;;;;;5015043;28;20033;-66
2022/12/09 02:39:12;;;;;;;31.10;20.52;;;4.70;83.60;;;;;;5029182;28;20028;-67
2022/12/09 02:41:41;;;;;;;27.27;18.67;;;4.60;83.60;;;;;;5032082;28;20056;-67
2022/12/09 02:44:16;;;;;;;31.05;20.13;;;4.60;83.80;;;;;;5029293;28;20563;-67
2022/12/09 02:46:42;;;;;;;28.52;19.13;;;4.60;83.70;;;;;;5024271;28;20674;-67
2022/12/09 02:49:08;;;;;;;26.42;18.10;;;4.50;83.70;;;;;;5026160;28;20025;-67
2022/12/09 02:51:36;;;;;;;27.35;18.92;;;4.60;83.90;;;;;;5028170;28;20021;-68
2022/12/09 02:54:12;;;;;;;24.77;17.30;;;4.50;83.70;;;;;;5029350;28;20032;-67
2022/12/09 02:56:41;;;;;;;24.85;17.77;;;4.50;83.70;;;;;;5030375;28;20388;-68
2022/12/09 02:59:06;;;;;;;25.65;16.45;;;4.50;83.70;;;;;;5027322;28;20026;-68
2022/12/09 03:01:47;;;;;;;25.52;17.63;;;4.50;83.80;;;;;;5026503;28;20112;-67
2022/12/09 03:04:19;;;;;;;25.77;17.73;;;4.50;83.70;;;;;;5028346;28;20026;-67
2022/12/09 03:06:54;;;;;;;31.95;21.33;;;4.40;83.50;;;;;;5028844;28;20056;-67
2022/12/09 03:09:32;;;;;;;27.30;17.75;;;4.30;83.40;;;;;;5023909;28;20100;-67
2022/12/09 03:12:00;;;;;;;26.80;17.73;;;4.30;83.80;;;;;;5025448;28;20554;-67
2022/12/09 03:14:36;;;;;;;24.90;16.77;;;4.20;83.70;;;;;;5026814;28;20064;-67
2022/12/09 03:17:20;;;;;;;24.90;16.13;;;4.20;83.80;;;;;;5011446;28;20029;-67
2022/12/09 03:19:48;;;;;;;26.70;17.73;;;4.20;83.80;;;;;;5024314;28;20060;-67
2022/12/09 03:22:19;;;;;;;26.63;17.42;;;4.10;83.70;;;;;;5029218;28;20488;-67
2022/12/09 03:24:51;;;;;;;28.05;18.20;;;4.00;83.80;;;;;;5022613;28;20032;-67
2022/12/09 03:27:23;;;;;;;23.30;15.52;;;4.00;83.70;;;;;;5026713;28;20025;-67
2022/12/09 03:29:51;;;;;;;27.20;17.88;;;4.10;83.80;;;;;;5026207;28;20109;-67
2022/12/09 03:32:19;;;;;;;25.88;16.98;;;4.10;83.60;;;;;;5010713;28;20026;-67
2022/12/09 03:34:48;;;;;;;24.77;15.93;;;4.00;83.60;;;;;;5030231;28;20033;-67
2022/12/09 03:37:17;;;;;;;26.38;17.35;;;4.00;83.60;;;;;;5024832;28;20116;-67
2022/12/09 03:39:43;;;;;;;24.77;16.83;;;4.00;83.60;;;;;;5025169;28;20108;-67
2022/12/09 03:42:17;;;;;;;25.88;17.38;;;4.00;83.60;;;;;;5028362;28;20064;-67
2022/12/09 03:44:49;;;;;;;30.95;19.92;;;4.00;83.50;;;;;;5029174;28;20479;-67
2022/12/09 03:47:15;;;;;;;27.40;18.08;;;3.90;83.40;;;;;;5001429;28;20064;-67
2022/12/09 03:49:41;;;;;;;22.42;15.57;;;4.00;83.50;;;;;;5024601;28;20057;-68
2022/12/09 03:52:20;;;;;;;23.95;16.17;;;4.00;83.30;;;;;;5028758;28;20450;-67
2022/12/09 03:54:48;;;;;;;23.92;15.88;;;4.10;83.30;;;;;;5029666;28;20364;-67
2022/12/09 03:57:16;;;;;;;20.70;13.70;;;4.10;83.40;;;;;;5024754;28;20660;-67
2022/12/09 03:59:45;;;;;;;22.88;15.07;;;4.10;83.40;;;;;;5024221;28;20504;-67
2022/12/09 04:02:11;;;;;;;22.90;15.13;;;4.10;83.20;;;;;;5026816;28;20029;-67
2022/12/09 04:04:40;;;;;;;23.20;15.60;;;4.20;83.10;;;;;;5024636;28;20030;-66
2022/12/09 04:07:06;;;;;;;21.80;14.30;;;4.20;83.00;;;;;;5021208;28;20018;-67
2022/12/09 04:09:32;;;;;;;20.55;13.98;;;4.20;82.80;;;;;;5027306;28;20100;-68
2022/12/09 04:11:58;;;;;;;20.02;13.25;;;4.10;82.70;;;;;;5023949;28;20101;-68
2022/12/09 04:14:23;;;;;;;21.88;13.48;;;4.10;83.00;;;;;;5020456;28;20052;-68
2022/12/09 04:16:49;;;;;;;22.60;14.07;;;4.00;83.10;;;;;;5028859;28;20130;-68
2022/12/09 04:19:15;;;;;;;21.92;14.45;;;4.10;83.10;;;;;;5019161;28;20031;-68
2022/12/09 04:21:40;;;;;;;24.08;15.20;;;4.10;82.90;;;;;;5027817;28;20108;-67
2022/12/09 04:24:07;;;;;;;19.40;13.15;;;4.00;82.90;;;;;;5025896;28;20029;-67
2022/12/09 04:26:33;;;;;;;23.00;15.15;;;3.90;83.00;;;;;;5026070;28;20017;-67
2022/12/09 04:28:59;;;;;;;21.67;14.52;;;3.80;83.10;;;;;;5011265;28;20029;-67
2022/12/09 04:31:24;;;;;;;21.08;14.55;;;3.70;83.30;;;;;;5026258;28;20022;-67
2022/12/09 04:33:50;;;;;;;23.00;15.25;;;3.60;83.30;;;;;;5023097;28;20084;-67
2022/12/09 04:36:18;;;;;;;21.33;13.82;;;3.60;83.50;;;;;;5021337;28;20026;-67
2022/12/09 04:38:45;;;;;;;23.10;14.73;;;3.60;83.90;;;;;;5026278;28;20032;-67
2022/12/09 04:41:11;;;;;;;21.25;13.98;;;3.50;83.70;;;;;;5025584;28;20024;-67
2022/12/09 04:43:37;;;;;;;24.13;15.90;;;3.50;83.80;;;;;;5012340;28;20141;-67
2022/12/09 04:46:05;;;;;;;24.67;16.08;;;3.40;83.80;;;;;;5017486;28;20480;-66
2022/12/09 04:48:31;;;;;;;24.83;15.75;;;3.40;83.90;;;;;;5019308;28;20451;-66
2022/12/09 04:50:58;;;;;;;22.15;14.63;;;3.40;84.00;;;;;;5022905;28;20117;-66
2022/12/09 04:53:24;;;;;;;23.80;15.63;;;3.30;83.80;;;;;;5026563;28;20017;-66
2022/12/09 04:56:00;;;;;;;23.17;15.07;;;3.30;83.90;;;;;;5021853;28;20037;-66
2022/12/09 04:58:26;;;;;;;21.55;14.32;;;3.30;84.00;;;;;;5016937;28;20052;-66
2022/12/09 05:00:52;;;;;;;22.92;14.40;;;3.40;84.10;;;;;;5023850;28;20484;-66
2022/12/09 05:03:17;;;;;;;20.88;12.75;;;3.40;84.10;;;;;;5011872;28;20048;-66
2022/12/09 05:05:43;;;;;;;21.85;13.95;;;3.50;83.90;;;;;;5011293;28;20027;-67
2022/12/09 05:08:09;;;;;;;19.88;13.20;;;3.50;83.70;;;;;;5014557;28;20053;-67
2022/12/09 05:10:34;;;;;;;18.05;11.85;;;3.50;83.40;;;;;;5027368;28;20037;-66
2022/12/09 05:13:00;;;;;;;19.30;13.13;;;3.40;83.40;;;;;;5024716;28;20029;-66
2022/12/09 05:15:27;;;;;;;19.38;13.20;;;3.50;83.60;;;;;;5020031;28;20647;-66
2022/12/09 05:17:52;;;;;;;22.05;13.75;;;3.50;83.40;;;;;;5026926;28;20029;-67
2022/12/09 05:20:18;;;;;;;18.60;11.85;;;3.50;83.50;;;;;;5022544;28;20040;-66
2022/12/09 05:22:43;;;;;;;20.38;13.27;;;3.50;83.60;;;;;;5006883;28;20062;-67
2022/12/09 05:25:09;;;;;;;20.38;13.23;;;3.50;83.60;;;;;;5026387;28;20041;-66
2022/12/09 05:27:34;;;;;;;18.98;12.98;;;3.50;83.60;;;;;;5026731;28;20132;-66
2022/12/09 05:30:00;;;;;;;18.85;12.15;;;3.60;83.70;;;;;;5007943;28;20511;-67
2022/12/09 05:32:29;;;;;;;18.38;12.20;;;3.70;83.60;;;;;;5021327;28;20017;-66
2022/12/09 05:34:55;;;;;;;19.33;12.88;;;3.70;83.40;;;;;;5024385;28;20025;-66
2022/12/09 05:37:21;;;;;;;17.85;11.98;;;3.80;83.40;;;;;;5024651;28;20041;-67
2022/12/09 05:39:46;;;;;;;19.23;12.68;;;3.90;83.20;;;;;;5007835;28;20036;-68
2022/12/09 05:42:12;;;;;;;17.92;11.75;;;3.90;83.10;;;;;;5027818;28;20029;-68
2022/12/09 05:44:37;;;;;;;17.70;11.30;;;3.90;82.90;;;;;;5030600;28;20021;-67
2022/12/09 05:47:03;;;;;;;19.58;12.88;;;4.00;82.80;;;;;;5025540;28;20048;-68
2022/12/09 05:49:29;;;;;;;17.75;11.52;;;4.00;82.60;;;;;;5025763;28;20025;-68
2022/12/09 05:51:54;;;;;;;19.02;13.07;;;4.10;82.50;;;;;;5019539;28;20040;-68
2022/12/09 05:54:20;;;;;;;18.73;11.98;;;4.10;83.00;;;;;;5013013;28;20048;-68
2022/12/09 05:56:45;;;;;;;20.17;12.75;;;4.10;82.20;;;;;;5025825;28;20108;-68
2022/12/09 05:59:11;;;;;;;19.10;13.05;;;4.20;82.20;;;;;;5025842;28;20120;-68
2022/12/09 06:01:37;;;;;;;17.83;11.23;;;4.10;81.90;;;;;;5013734;28;20128;-67
2022/12/09 06:04:02;;;;;;;18.02;12.38;;;4.10;82.10;;;;;;5027916;28;20025;-67
2022/12/09 06:06:31;;;;;;;16.48;11.05;;;4.00;82.30;;;;;;5028210;28;20101;-67
2022/12/09 06:08:58;;;;;;;17.88;11.63;;;4.00;82.40;;;;;;5027300;28;20061;-67
2022/12/09 06:11:24;;;;;;;18.75;11.82;;;4.10;82.40;;;;;;5028102;28;20022;-67
2022/12/09 06:13:50;;;;;;;19.70;11.80;;;4.00;82.30;;;;;;5022424;28;20732;-67
2022/12/09 06:16:18;;;;;;;15.98;10.82;;;4.00;82.40;;;;;;5029712;28;20071;-67
2022/12/09 06:18:44;;;;;;;16.08;10.25;;;4.00;82.50;;;;;;5023981;28;20031;-67
2022/12/09 06:21:11;;;;;;;16.52;11.15;;;3.90;82.50;;;;;;5031169;28;20029;-67
2022/12/09 06:23:42;;;;;;;15.73;10.77;;;3.90;82.40;;;;;;5030686;28;20095;-68
2022/12/09 06:26:16;;;;;;;15.88;11.00;;;3.80;82.40;;;;;;5028089;28;20481;-67
2022/12/09 06:28:41;;;;;;;16.48;11.07;;;3.70;82.60;;;;;;5029111;28;20487;-67
2022/12/09 06:31:07;;;;;;;16.67;10.95;;;3.70;82.80;;;;;;5013420;28;20112;-67
2022/12/09 06:33:32;;;;;;;17.33;11.13;;;3.60;83.00;;;;;;5031218;28;20502;-67
2022/12/09 06:36:02;;;;;;;18.20;12.27;;;3.70;83.20;;;;;;5027311;28;20018;-67
2022/12/09 06:38:28;;;;;;;19.73;12.15;;;3.70;83.10;;;;;;5026179;28;20086;-68
2022/12/09 06:40:54;;;;;;;19.02;11.35;;;3.70;82.90;;;;;;5027834;28;20777;-67
2022/12/09 06:43:19;;;;;;;18.52;12.02;;;3.70;82.70;;;;;;5025198;28;20025;-67
2022/12/09 06:45:45;;;;;;;17.67;11.38;;;3.70;82.70;;;;;;5026875;28;20049;-67
2022/12/09 06:48:11;;;;;;;18.63;11.25;;;3.60;82.70;;;;;;5025817;28;20392;-67
2022/12/09 06:50:37;;;;;;;18.85;12.05;;;3.60;82.70;;;;;;5025496;28;20391;-67
2022/12/09 06:53:03;;;;;;;18.70;12.05;;;3.50;82.50;;;;;;5021690;28;20121;-68
2022/12/09 06:55:28;;;;;;;17.80;11.15;;;3.40;83.20;;;;;;5025856;28;20025;-67
2022/12/09 06:57:54;;;;;;;19.52;11.75;;;3.40;82.90;;;;;;5027122;28;20056;-67
2022/12/09 07:00:20;;;;;;;16.83;11.25;;;3.30;83.00;;;;;;5028430;28;20034;-68
2022/12/09 07:02:46;;;;;;;19.17;12.35;;;3.30;82.90;;;;;;5022273;28;20104;-67
2022/12/09 07:05:12;;;;;;;18.33;11.70;;;3.30;83.00;;;;;;5027448;28;20474;-67
2022/12/09 07:07:37;;;;;;;19.10;11.32;;;3.30;82.90;;;;;;5021111;28;20148;-67
2022/12/09 07:10:05;;;;;;;20.63;12.13;;;3.30;82.90;;;;;;5030449;28;20049;-67
2022/12/09 07:12:31;;;;;;;19.67;12.13;;;3.20;82.80;;;;;;5031523;28;20387;-67
2022/12/09 07:14:56;;;;;;;16.77;11.13;;;3.20;82.70;;;;;;5032180;28;20104;-68
2022/12/09 07:17:22;;;;;;;19.02;11.32;;;3.20;82.80;;;;;;5012462;28;20021;-67
2022/12/09 07:19:47;;;;;;;17.00;11.20;;;3.20;82.70;;;;;;5023755;28;20132;-68
2022/12/09 07:22:13;;;;;;;17.38;11.00;;;3.10;82.60;;;;;;5026046;28;20059;-68
2022/12/09 07:24:39;;;;;;;19.08;11.05;;;3.10;82.50;;;;;;5028459;28;20030;-68
2022/12/09 07:27:07;;;;;;;18.80;11.88;;;3.10;82.60;;;;;;5026733;28;20033;-68
2022/12/09 07:29:35;;;;;;;18.98;11.63;;;3.10;83.20;;;;;;5030173;28;20105;-67
2022/12/09 07:32:00;;;;;;;17.58;10.90;;;3.10;82.40;;;;;;5008738;28;20045;-67
2022/12/09 07:34:26;;;;;;;18.33;11.10;;;3.00;82.40;;;;;;5023222;28;20021;-67
2022/12/09 07:36:52;;;;;;;19.13;11.65;;;3.00;82.40;;;;;;5027135;28;20663;-67
2022/12/09 07:39:18;;;;;;;17.75;11.20;;;3.00;82.40;;;;;;5019791;28;21551;-67
2022/12/09 07:41:44;;;;;;;18.08;11.85;;;3.00;82.30;;;;;;5027585;28;20583;-67
2022/12/09 07:44:10;;;;;;;17.38;11.20;;;2.90;82.10;;;;;;5029044;28;20026;-67
2022/12/09 07:46:37;;;;;;;17.63;11.48;;;2.80;82.30;;;;;;5027956;28;20379;-68
2022/12/09 07:49:04;;;;;;;16.88;10.68;;;2.80;82.40;;;;;;5030546;28;20026;-67
2022/12/09 07:51:31;;;;;;;17.13;10.75;;;2.80;82.40;;;;;;5027159;28;20030;-67
2022/12/09 07:53:56;;;;;;;14.93;9.38;;;2.80;82.30;;;;;;5027593;28;20026;-68
2022/12/09 07:56:23;;;;;;;15.23;9.77;;;2.70;82.50;;;;;;5027655;28;20503;-67
2022/12/09 07:58:52;;;;;;;18.23;11.00;;;2.70;82.70;;;;;;5026722;28;20063;-67
2022/12/09 08:01:19;;;;;;;17.90;10.90;;;2.70;82.70;;;;;;5022074;28;20030;-67
2022/12/09 08:03:46;;;;;;;17.88;10.52;;;2.70;82.50;;;;;;5028919;28;20484;-68
2022/12/09 08:06:13;;;;;;;17.45;10.55;;;2.70;82.40;;;;;;5023078;28;20691;-68
2022/12/09 08:08:39;;;;;;;17.98;10.10;;;2.70;82.50;;;;;;5022875;28;20026;-67
2022/12/09 08:11:19;;;;;;;17.60;10.88;;;2.70;82.80;;;;;;5019611;28;20099;-67
2022/12/09 08:13:45;;;;;;;17.08;11.05;;;2.80;82.80;;;;;;5033376;28;20025;-67
2022/12/09 08:16:14;;;;;;;18.30;11.48;;;2.80;82.60;;;;;;5029163;28;20084;-67
2022/12/09 08:18:40;;;;;;;14.75;9.13;;;2.90;82.40;;;;;;5012014;28;20087;-67
2022/12/09 08:21:08;;;;;;;18.38;11.20;;;2.90;82.30;;;;;;5016577;28;20030;-68
2022/12/09 08:23:34;;;;;;;19.15;11.95;;;2.90;82.20;;;;;;5022392;28;20098;-67
2022/12/09 08:26:00;;;;;;;16.63;10.23;;;3.00;82.20;;;;;;5029244;28;20041;-67
2022/12/09 08:28:26;;;;;;;16.65;10.80;;;3.00;82.70;;;;;;5023002;28;20377;-67
2022/12/09 08:30:51;;;;;;;16.40;10.32;;;3.10;82.10;;;;;;5029894;28;20040;-67
2022/12/09 08:33:17;;;;;;;18.60;11.32;;;3.10;82.10;;;;;;5026978;28;20022;-67
2022/12/09 08:35:43;;;;;;;19.30;11.48;;;3.20;82.10;;;;;;5025742;28;20045;-67
2022/12/09 08:38:10;;;;;;;21.25;12.82;;;3.20;82.00;;;;;;5028689;28;20025;-67
2022/12/09 08:40:36;;;;;;;22.73;13.43;;;3.20;82.10;;;;;;5023604;28;20021;-67
2022/12/09 08:43:07;;;;;;;22.90;13.48;;;3.30;82.30;;;;;;5023584;28;20041;-67
2022/12/09 08:45:37;;;;;;;29.05;16.88;;;3.30;82.30;;;;;;5024293;28;20037;-67
2022/12/09 08:48:03;;;;;;;23.05;14.15;;;3.30;82.40;;;;;;5021870;28;20025;-67
2022/12/09 08:50:29;;;;;;;22.02;13.27;;;3.40;82.50;;;;;;5025791;28;20030;-67
2022/12/09 08:52:54;;;;;;;21.50;12.80;;;3.40;82.50;;;;;;5022958;28;20108;-67
2022/12/09 08:55:20;;;;;;;23.33;13.98;;;3.50;82.50;;;;;;5021148;28;20030;-67
2022/12/09 08:57:45;;;;;;;23.15;14.30;;;3.60;82.40;;;;;;5025319;28;20033;-67
2022/12/09 09:00:11;;;;;;;24.30;13.52;;;3.70;82.40;;;;;;5018217;28;20040;-68
2022/12/09 09:02:37;;;;;;;25.10;14.27;;;3.70;82.30;;;;;;5020024;28;20037;-67
2022/12/09 09:05:03;;;;;;;24.90;14.75;;;3.80;82.30;;;;;;5020193;28;20025;-67
2022/12/09 09:07:29;;;;;;;28.42;15.80;;;3.80;82.20;;;;;;5027822;28;20040;-67
2022/12/09 09:09:55;;;;;;;29.73;17.40;;;3.80;82.20;;;;;;5022592;28;20033;-67
2022/12/09 09:12:21;;;;;;;24.40;14.98;;;3.90;82.30;;;;;;5025327;28;20106;-67
2022/12/09 09:14:47;;;;;;;24.38;15.35;;;3.90;82.30;;;;;;5024221;28;20609;-67
2022/12/09 09:17:12;;;;;;;25.42;14.32;;;3.90;82.30;;;;;;5024842;28;20388;-67
2022/12/09 09:19:38;;;;;;;25.65;16.42;;;4.00;82.30;;;;;;5032738;28;20483;-67
2022/12/09 09:22:03;;;;;;;21.55;12.98;;;4.00;82.30;;;;;;5031383;28;20060;-68
2022/12/09 09:24:38;;;;;;;20.02;12.18;;;4.00;82.40;;;;;;5030780;28;20021;-67
2022/12/09 09:27:04;;;;;;;20.48;12.98;;;4.00;82.40;;;;;;5017420;28;20461;-68
2022/12/09 09:29:30;;;;;;;21.45;13.00;;;4.00;82.40;;;;;;5035234;28;20104;-67
2022/12/09 09:31:56;;;;;;;22.30;12.57;;;4.00;82.40;;;;;;5026546;28;20388;-68
2022/12/09 09:34:22;;;;;;;22.63;13.18;;;4.10;82.40;;;;;;5019547;28;20155;-67
2022/12/09 09:36:49;;;;;;;22.13;12.60;;;4.10;82.40;;;;;;5026517;28;20514;-68
2022/12/09 09:39:16;;;;;;;23.35;14.05;;;4.20;82.20;;;;;;5029477;28;20102;-67
2022/12/09 09:41:44;;;;;;;20.33;12.52;;;4.20;82.30;;;;;;5015201;28;20518;-68
2022/12/09 09:44:30;;;;;;;20.05;12.02;;;4.20;82.30;;;;;;5031883;28;20025;-67
2022/12/09 09:46:57;;;;;;;24.70;14.63;;;4.20;82.50;;;;;;5030162;28;20026;-67
2022/12/09 09:49:29;;;;;;;23.05;14.45;;;4.20;82.30;;;;;;5027698;28;20032;-67
2022/12/09 09:51:55;;;;;;;20.85;13.00;;;4.20;82.40;;;;;;5011730;28;21415;-67
2022/12/09 09:54:21;;;;;;;24.10;14.43;;;4.20;82.30;;;;;;5009668;28;20175;-67
2022/12/09 09:56:53;;;;;;;19.67;12.50;;;4.20;82.20;;;;;;5019480;28;20025;-67
2022/12/09 09:59:31;;;;;;;23.55;14.93;;;4.20;82.20;;;;;;5033240;28;20078;-65
2022/12/09 10:01:59;;;;;;;20.52;13.27;;;4.20;82.00;;;;;;5033939;28;20060;-65
2022/12/09 10:04:46;;;;;;;22.20;13.50;;;4.10;81.70;;;;;;5012309;28;20026;-65
2022/12/09 10:07:31;;;;;;;20.88;12.27;;;4.10;81.60;;;;;;5027058;28;20048;-65
2022/12/09 10:10:29;;;;;;;18.67;11.60;;;4.10;81.40;;;;;;5027805;28;20026;-68
2022/12/09 10:13:13;;;;;;;14.95;9.38;;;4.10;81.30;;;;;;5025823;28;20113;-67
2022/12/09 10:16:21;;;;;;;20.02;11.50;;;4.20;81.40;;;;;;5015613;28;20029;-67
2022/12/09 10:18:58;;;;;;;23.13;13.23;;;4.20;81.20;;;;;;4995198;28;20038;-67
2022/12/09 10:21:29;;;;;;;20.13;12.07;;;4.10;81.10;;;;;;5027329;28;20355;-67
2022/12/09 10:23:57;;;;;;;16.23;9.90;;;4.10;81.10;;;;;;5010402;28;20086;-67
2022/12/09 10:26:26;;;;;;;19.42;11.82;;;4.20;81.20;;;;;;5028769;28;20021;-67
2022/12/09 10:29:06;;;;;;;19.83;12.30;;;4.20;81.00;;;;;;5021027;28;20065;-67
2022/12/09 10:31:32;;;;;;;16.67;10.35;;;4.20;80.90;;;;;;5027120;28;20029;-67
2022/12/09 10:33:57;;;;;;;18.75;10.88;;;4.30;81.30;;;;;;5029687;28;20021;-68
2022/12/09 10:36:27;;;;;;;19.20;11.85;;;4.30;80.80;;;;;;5028715;28;20018;-68
2022/12/09 10:38:53;;;;;;;17.30;10.68;;;4.30;80.70;;;;;;5027129;28;20058;-67
2022/12/09 10:44:26;;;;;;;20.63;12.98;;;4.40;80.30;;;;;;5024746;28;20052;-68
2022/12/09 10:47:06;;;;;;;18.95;10.95;;;4.40;79.80;;;;;;5010342;28;20120;-67
2022/12/09 10:49:35;;;;;;;17.67;11.15;;;4.40;79.90;;;;;;5024545;28;20070;-67
2022/12/09 10:52:03;;;;;;;18.75;12.10;;;4.40;79.70;;;;;;5027146;28;20033;-67
2022/12/09 10:54:45;;;;;;;18.92;10.90;;;4.40;79.60;;;;;;5011489;28;20496;-67
2022/12/09 10:57:11;;;;;;;15.80;10.02;;;4.50;79.60;;;;;;5026077;28;20439;-67
2022/12/09 10:59:38;;;;;;;15.90;9.93;;;4.50;79.60;;;;;;5027560;28;20056;-66
2022/12/09 11:02:09;;;;;;;20.10;11.93;;;4.60;79.60;;;;;;5026427;28;20108;-67
2022/12/09 11:04:42;;;;;;;18.95;11.07;;;4.60;79.20;;;;;;5026925;28;20121;-68
2022/12/09 11:07:11;;;;;;;18.92;10.75;;;4.60;79.10;;;;;;5026938;28;20067;-68
2022/12/09 11:09:50;;;;;;;17.23;11.10;;;4.70;79.00;;;;;;5028990;28;20025;-66
2022/12/09 11:12:25;;;;;;;19.75;11.35;;;4.70;79.00;;;;;;5016863;28;20033;-67
2022/12/09 11:14:57;;;;;;;19.77;11.75;;;4.70;78.90;;;;;;5034121;28;20480;-68
2022/12/09 11:17:29;;;;;;;17.85;10.82;;;4.80;78.90;;;;;;5027174;28;20458;-66
2022/12/09 11:20:15;;;;;;;19.20;12.05;;;4.80;78.90;;;;;;5021127;28;20067;-68
2022/12/09 11:22:44;;;;;;;22.08;12.90;;;4.90;78.90;;;;;;5011090;28;20486;-68
2022/12/09 11:25:10;;;;;;;20.38;11.82;;;4.90;78.80;;;;;;5022169;28;20113;-68
2022/12/09 11:27:37;;;;;;;20.60;12.85;;;5.00;78.80;;;;;;5028556;28;20108;-67
2022/12/09 11:30:20;;;;;;;25.35;14.93;;;4.90;78.50;;;;;;5022788;28;20080;-67
2022/12/09 11:33:05;;;;;;;23.02;14.77;;;4.80;78.10;;;;;;5024818;28;20025;-67
2022/12/09 11:35:43;;;;;;;23.42;15.20;;;4.70;77.80;;;;;;5025917;28;20096;-67
2022/12/09 11:38:33;;;;;;;23.30;13.75;;;4.70;77.50;;;;;;5029562;28;20026;-67
2022/12/09 11:41:09;;;;;;;20.75;12.35;;;4.70;77.50;;;;;;5015495;28;20107;-68
2022/12/09 11:43:35;;;;;;;17.88;11.82;;;4.50;77.20;;;;;;5022920;28;20550;-68
2022/12/09 11:46:15;;;;;;;17.38;10.02;;;4.50;77.30;;;;;;5004138;28;20104;-64
2022/12/09 11:48:47;;;;;;;21.40;13.15;;;4.60;77.60;;;;;;5024880;28;20387;-66
2022/12/09 11:51:28;;;;;;;17.98;11.25;;;4.50;77.40;;;;;;5027710;28;20022;-68
2022/12/09 11:54:01;;;;;;;18.73;11.60;;;4.60;77.70;;;;;;5021637;28;20036;-68
2022/12/09 11:56:28;;;;;;;16.95;10.55;;;4.70;77.70;;;;;;5023219;28;20021;-67
2022/12/09 11:59:10;;;;;;;19.23;11.88;;;4.80;77.80;;;;;;5020831;28;20084;-69
2022/12/09 12:01:51;;;;;;;23.90;13.75;;;4.80;77.60;;;;;;5027897;28;20492;-66
2022/12/09 12:04:26;;;;;;;20.67;12.00;;;4.80;77.30;;;;;;5025667;28;20021;-66
2022/12/09 12:07:00;;;;;;;19.55;11.45;;;4.80;77.30;;;;;;5026265;28;20030;-64
2022/12/09 12:09:33;;;;;;;18.08;10.90;;;4.90;77.30;;;;;;5024171;28;20100;-65
2022/12/09 12:12:50;;;;;;;23.15;15.25;;;4.90;77.20;;;;;;5022644;28;20065;-66
2022/12/09 12:15:27;;;;;;;23.20;14.23;;;4.70;76.90;;;;;;4989323;28;20034;-66
2022/12/09 12:17:55;;;;;;;23.02;13.32;;;4.60;77.00;;;;;;5007883;28;20054;-65
2022/12/09 12:20:35;;;;;;;19.85;12.93;;;4.50;77.30;;;;;;5022182;28;20033;-65
2022/12/09 12:23:06;;;;;;;21.15;11.82;;;4.60;77.70;;;;;;5027886;28;20108;-66
2022/12/09 12:25:46;;;;;;;19.23;11.30;;;4.70;77.80;;;;;;5026162;28;20029;-64
2022/12/09 12:28:34;;;;;;;19.05;12.13;;;4.80;77.70;;;;;;5025408;28;20395;-66
2022/12/09 12:31:52;;;;;;;20.88;12.23;;;4.90;77.60;;;;;;5024255;28;20021;-66
2022/12/09 12:34:37;;;;;;;18.27;11.77;;;4.90;76.90;;;;;;4973039;28;20037;-66
2022/12/09 12:37:47;;;;;;;19.55;10.75;;;4.80;76.60;;;;;;5033709;28;20135;-66
2022/12/09 12:40:32;;;;;;;19.10;10.82;;;4.80;76.60;;;;;;4943435;28;20110;-65
2022/12/09 12:46:32;;;;;;;19.88;12.52;;;4.80;76.60;;;;;;5023520;28;20059;-64
2022/12/09 12:49:16;;;;;;;20.70;11.50;;;4.80;76.10;;;;;;5025990;28;20026;-64
2022/12/09 12:52:06;;;;;;;19.15;11.80;;;4.90;75.90;;;;;;5021644;28;20030;-65
2022/12/09 12:54:41;;;;;;;17.65;10.40;;;5.00;75.90;;;;;;5018532;28;20029;-65
2022/12/09 12:57:20;;;;;;;18.52;9.82;;;5.00;75.90;;;;;;5027235;28;20076;-66